PAKTPAWG

Guest
Details From PAKT - KETCHIKAN INTL
To PAWG - WRANGELL
Flight Number -
Tags generated
Created
Modified
Stats Distance 74 nm / 138 km
Max Altitude 3,400 ft / 1,036 m
Waypoints 3
Social Downloads 3
Likes 0
Share VATSIM

Download

Looking for another format? Having issues loading an existing format? Contact us
Advertisement - Login to hide

Notes

Basic altitude profile: - Ascent Rate: 1000ft/min - Ascent Speed: 110kts - Cruise Altitude: 5000ft - Cruise Speed: 220kts - Descent Rate: 950ft/min - Descent Speed: 110kts Options: - Use NATs: yes - Use PACOTS: yes - Use low airways: yes - Use high airways: yes

Route

PAKT GESTI PAWG

ID Type Via Altitude Latitude Longitude Leg Dist Tot Dist Heading (true) Name
O PAKT APT - 0 ft / 0 m 55.35554˚ -131.71374˚ - 0 nm - KETCHIKAN INTL
GESTI FIX - 3,400 ft / 1,036 m 55.43263˚ -131.96400˚ 9 nm 9 nm 299° / 298° -
O PAWG APT - 0 ft / 0 m 56.48432˚ -132.36983˚ 64 nm 74 nm 348° / 348° WRANGELL

Altitude Profile

Advertisement - Login to hide

PAKT

Details ICAO PAKT (KTN)
Name KETCHIKAN INTL
Region USA (Alaska)
Timezone Unknown (UTC+0.0)
Stats Elevation 88 ft / 27 m (AMSL)
Location 55.355545° -131.713737°
Runways 1
Magnetic Variation 18.535° E

METAR

PAKT 120153Z 14009KT 10SM CLR 11/01 A2998

Decode

TAF

PAKT 112326Z 1200/1224 15015KT P6SM OVC120 FM120300 15015G21KT P6SM -RA SCT030 OVC050 WS020/16040KT FM120700 15015G25KT P6SM -RA BKN020 OVC035 WS020/16040KT FM121400 14010KT P6SM -RA BKN015 OVC030 AMD LTD TO CLD VIS AND WIND 1207/1215

Decode

Departure Runways

ID Width Length Bearing (true) Bearing (mag) Surface Threshold Offset Overrun Length
11 150 ft / 46 m 7,485 ft / 2,281 m 135.66° 117.12° Asphalt 0 ft / 0 m 200 ft / 61 m
29 150 ft / 46 m 7,485 ft / 2,281 m 315.68° 297.14° Asphalt 0 ft / 0 m 100 ft / 30 m

PAWG

Details ICAO PAWG (WRG)
Name WRANGELL
Region USA (Alaska)
Timezone America/Juneau (UTC-9.0)
Stats Elevation 44 ft / 13 m (AMSL)
Location 56.484324° -132.369832°
Runways 1
Magnetic Variation 18.811° E

METAR

PAWG 120156Z 11008KT 10SM BKN100 BKN150 08/02 A2996

Decode

TAF

PAWG 112326Z 1200/1224 10006KT P6SM OVC100 FM120700 11012G18KT 6SM -RA OVC035 FM121500 11008KT P6SM -RA BKN020 OVC035 AMD LTD TO CLD VIS AND WIND 1207/1215

Decode

Destination Runways

ID Width Length Bearing (true) Bearing (mag) Surface Threshold Offset Overrun Length
10 150 ft / 46 m 5,983 ft / 1,824 m 121.43° 102.62° Asphalt 0 ft / 0 m 0 ft / 0 m
28 150 ft / 46 m 5,983 ft / 1,824 m 301.45° 282.64° Asphalt 0 ft / 0 m 0 ft / 0 m

Approach Navaids

Runway Type Ident Frequency Range Bearing (true) Bearing (mag) Slope Elevation
10 Localiser IRGL 108.50 MHz 18 nm / 33 km 112.18° 93.37° - 40 ft / 12 m (AMSL)
10 DME IRGL 108.50 MHz 18 nm / 33 km - - - 58 ft / 18 m (AMSL)

Popular Alternatives